Time;durP1;ratioP1;P1;durP2;ratioP2;P2;SDS_P1;SDS_P2;PMS_P1;PMS_P2;Temp;Humidity;BMP_temperature;BMP_pressure;BME280_temperature;BME280_humidity;BME280_pressure;Samples;Min_cycle;Max_cycle;Signal;HPM_P1;HPM_P2
2023/09/06 00:04:12;;;;;;;14.50;8.60;;;;;;;14.60;100.00;101280.92;218914;1288;139749;-88
2023/09/06 00:09:13;;;;;;;16.30;9.10;;;;;;;14.54;100.00;101281.66;218355;1289;141277;-88
2023/09/06 00:14:15;;;;;;;17.20;9.60;;;;;;;14.48;100.00;101277.09;218856;1288;139648;-88
2023/09/06 00:19:17;;;;;;;15.50;9.50;;;;;;;14.44;100.00;101274.13;218295;1287;142541;-88
2023/09/06 00:24:19;;;;;;;17.20;9.20;;;;;;;14.41;100.00;101270.06;219042;1285;96089;-88
2023/09/06 00:29:21;;;;;;;13.60;8.40;;;;;;;14.35;100.00;101273.73;218363;1288;141879;-88
2023/09/06 00:34:21;;;;;;;16.60;9.60;;;;;;;14.33;100.00;101270.16;218807;1286;139279;-88
2023/09/06 00:39:23;;;;;;;15.80;9.50;;;;;;;14.29;100.00;101267.50;218307;1286;142663;-88
2023/09/06 00:44:24;;;;;;;16.20;8.70;;;;;;;14.24;100.00;101270.79;218867;1285;139384;-88
2023/09/06 00:49:25;;;;;;;17.30;10.00;;;;;;;14.19;100.00;101255.60;218026;1288;142793;-88
2023/09/06 00:54:25;;;;;;;18.60;9.60;;;;;;;14.14;100.00;101264.95;219085;1289;96507;-89
2023/09/06 00:59:26;;;;;;;16.00;9.00;;;;;;;14.07;100.00;101259.50;218155;1289;141659;-88
2023/09/06 01:04:27;;;;;;;17.00;9.60;;;;;;;14.04;100.00;101255.45;218845;1289;141439;-88
2023/09/06 01:09:31;;;;;;;19.00;9.50;;;;;;;14.02;100.00;101252.10;218335;1288;165159;-88
2023/09/06 01:14:32;;;;;;;20.70;10.80;;;;;;;13.99;100.00;101246.22;218841;1288;140733;-89
2023/09/06 01:19:36;;;;;;;13.40;9.00;;;;;;;13.94;100.00;101243.79;218172;1286;142556;-88
2023/09/06 01:24:37;;;;;;;17.80;10.30;;;;;;;13.90;100.00;101238.20;218932;1291;106586;-88
2023/09/06 01:29:38;;;;;;;17.80;9.10;;;;;;;13.86;100.00;101238.17;218167;1289;142549;-88
2023/09/06 01:34:38;;;;;;;16.90;10.20;;;;;;;13.82;100.00;101239.63;218845;1289;139151;-88
2023/09/06 01:39:39;;;;;;;18.50;10.00;;;;;;;13.79;100.00;101241.65;218328;1286;142152;-88
2023/09/06 01:44:42;;;;;;;20.00;11.60;;;;;;;13.76;100.00;101240.98;218923;1288;140690;-88
2023/09/06 01:49:45;;;;;;;15.80;10.60;;;;;;;13.72;100.00;101249.41;218265;1289;141983;-88
2023/09/06 01:54:46;;;;;;;16.70;11.50;;;;;;;13.68;100.00;101248.02;219001;1286;96267;-88
2023/09/06 01:59:50;;;;;;;18.70;11.50;;;;;;;13.66;100.00;101257.70;218356;1286;141494;-88
2023/09/06 02:04:51;;;;;;;18.90;11.90;;;;;;;13.62;100.00;101257.75;218868;1287;139401;-88
2023/09/06 02:09:51;;;;;;;19.90;11.90;;;;;;;13.58;100.00;101256.03;218327;1287;145481;-86
2023/09/06 02:14:52;;;;;;;19.20;11.10;;;;;;;13.55;100.00;101255.36;219110;1288;140389;-88
2023/09/06 02:19:53;;;;;;;18.60;10.40;;;;;;;13.52;100.00;101256.44;218341;1289;142108;-88
2023/09/06 02:24:53;;;;;;;19.20;11.30;;;;;;;13.49;100.00;101254.83;219011;1289;97076;-88
2023/09/06 02:29:54;;;;;;;19.20;11.20;;;;;;;13.45;100.00;101259.10;218408;1286;142584;-88
2023/09/06 02:34:54;;;;;;;17.60;11.90;;;;;;;13.41;100.00;101261.27;218912;1288;140104;-89
2023/09/06 02:39:54;;;;;;;16.20;10.90;;;;;;;13.38;100.00;101264.79;218394;1286;142745;-89
2023/09/06 02:44:55;;;;;;;19.70;12.10;;;;;;;13.36;100.00;101267.84;218942;1288;140293;-88
2023/09/06 02:49:56;;;;;;;21.60;11.90;;;;;;;13.34;100.00;101267.19;218335;1290;142937;-87
2023/09/06 02:55:04;;;;;;;21.90;11.70;;;;;;;13.32;100.00;101273.80;218884;1286;96071;-88
2023/09/06 03:00:18;;;;;;;19.70;11.70;;;;;;;13.29;100.00;101276.52;218330;1288;141642;-88
2023/09/06 03:05:20;;;;;;;19.10;11.70;;;;;;;13.27;100.00;101281.15;218818;1291;140171;-88
2023/09/06 03:10:22;;;;;;;21.70;12.20;;;;;;;13.25;100.00;101285.14;218370;1286;140802;-88
2023/09/06 03:15:27;;;;;;;22.00;12.60;;;;;;;13.21;100.00;101281.30;218912;1290;140299;-88
2023/09/06 03:20:55;;;;;;;19.70;12.80;;;;;;;13.19;100.00;101282.08;218341;1290;143093;-88
2023/09/06 03:25:54;;;;;;;22.20;13.60;;;;;;;13.16;100.00;101283.59;218853;1291;140025;-88
2023/09/06 03:30:58;;;;;;;18.40;11.20;;;;;;;13.13;100.00;101283.48;218718;1289;141516;-88
2023/09/06 03:35:58;;;;;;;21.70;12.10;;;;;;;13.10;100.00;101281.86;218897;1291;140028;-88
2023/09/06 03:41:02;;;;;;;16.80;11.70;;;;;;;13.07;100.00;101278.19;218386;1289;141492;-88
2023/09/06 03:46:09;;;;;;;23.00;13.20;;;;;;;13.05;100.00;101274.91;218685;1289;140456;-88
2023/09/06 03:51:13;;;;;;;21.20;12.90;;;;;;;13.04;100.00;101278.91;218306;1286;142081;-88
2023/09/06 03:56:14;;;;;;;20.00;12.50;;;;;;;13.02;100.00;101281.58;218760;1286;140569;-87
2023/09/06 04:01:15;;;;;;;18.40;11.50;;;;;;;13.00;100.00;101282.73;218371;1288;141590;-88
2023/09/06 04:06:16;;;;;;;22.80;12.90;;;;;;;12.98;100.00;101284.29;218945;1289;95920;-88
2023/09/06 04:11:17;;;;;;;22.40;14.40;;;;;;;12.96;100.00;101287.71;218185;1286;141609;-88
2023/09/06 04:16:17;;;;;;;18.60;11.60;;;;;;;12.95;100.00;101287.13;218921;1288;140113;-88
2023/09/06 04:21:20;;;;;;;24.00;13.40;;;;;;;12.94;100.00;101292.48;218415;1289;141372;-88
2023/09/06 04:26:20;;;;;;;22.90;14.20;;;;;;;12.93;100.00;101295.00;218928;1286;140103;-88
2023/09/06 04:31:21;;;;;;;24.10;14.90;;;;;;;12.91;100.00;101300.19;218077;1288;142343;-88
2023/09/06 04:36:21;;;;;;;19.60;12.60;;;;;;;12.91;100.00;101298.21;218997;1287;96332;-88
2023/09/06 04:41:22;;;;;;;28.70;17.40;;;;;;;12.90;100.00;101297.15;218225;1286;141221;-88
2023/09/06 04:46:22;;;;;;;23.10;14.40;;;;;;;12.91;100.00;101300.10;218893;1288;139978;-87
2023/09/06 04:51:23;;;;;;;25.90;15.90;;;;;;;12.92;100.00;101302.80;218432;1288;142620;-88
2023/09/06 04:56:25;;;;;;;25.60;16.20;;;;;;;12.93;100.00;101303.98;218825;1287;140206;-87
2023/09/06 05:01:26;;;;;;;31.50;19.00;;;;;;;12.96;100.00;101305.02;218259;1288;143536;-87
2023/09/06 05:06:27;;;;;;;29.10;19.10;;;;;;;13.01;100.00;101311.09;218993;1287;96000;-87
2023/09/06 05:11:27;;;;;;;32.00;20.20;;;;;;;13.08;100.00;101316.95;218385;1286;141501;-88
2023/09/06 05:16:28;;;;;;;35.40;22.80;;;;;;;13.12;100.00;101316.02;218667;1289;140509;-88
2023/09/06 05:21:29;;;;;;;38.40;21.90;;;;;;;13.21;100.00;101320.55;218285;1288;142430;-89
2023/09/06 05:26:40;;;;;;;33.90;22.50;;;;;;;13.34;100.00;101321.85;218890;1286;140239;-88
2023/09/06 05:31:41;;;;;;;33.00;22.60;;;;;;;13.46;100.00;101324.00;218095;1289;143247;-88
2023/09/06 05:36:42;;;;;;;34.20;21.70;;;;;;;13.64;100.00;101322.33;218940;1288;96039;-87
2023/09/06 05:41:43;;;;;;;40.20;24.00;;;;;;;13.87;100.00;101319.77;218273;1288;143385;-87
2023/09/06 05:46:43;;;;;;;40.50;23.40;;;;;;;14.04;100.00;101320.29;218838;1288;139440;-87
2023/09/06 05:51:44;;;;;;;36.00;24.00;;;;;;;14.24;100.00;101324.65;218304;1288;142182;-88
2023/09/06 05:56:45;;;;;;;41.30;23.20;;;;;;;14.44;100.00;101322.73;218854;1287;139701;-86
2023/09/06 06:01:46;;;;;;;38.80;22.90;;;;;;;14.69;100.00;101329.29;218077;1288;141366;-88
2023/09/06 06:06:47;;;;;;;39.20;22.00;;;;;;;14.99;100.00;101331.42;218784;1288;96153;-88
2023/09/06 06:11:47;;;;;;;31.10;19.80;;;;;;;15.18;100.00;101332.05;218334;1286;141199;-88
2023/09/06 06:16:48;;;;;;;30.80;19.60;;;;;;;15.39;100.00;101336.16;218866;1287;140600;-87
2023/09/06 06:21:49;;;;;;;36.70;19.60;;;;;;;15.63;100.00;101344.95;218357;1288;142656;-88
2023/09/06 06:26:51;;;;;;;39.10;19.10;;;;;;;15.82;100.00;101348.29;218815;1288;140904;-87
2023/09/06 06:31:52;;;;;;;33.40;18.10;;;;;;;15.95;100.00;101351.04;218040;1288;141452;-88
2023/09/06 06:36:52;;;;;;;38.00;19.50;;;;;;;16.07;100.00;101348.00;218827;1289;95844;-87
2023/09/06 06:41:53;;;;;;;36.10;19.60;;;;;;;16.22;100.00;101351.92;218210;1287;141566;-88
2023/09/06 06:46:53;;;;;;;32.90;18.70;;;;;;;16.46;100.00;101348.99;218702;1287;139716;-88
2023/09/06 06:51:54;;;;;;;29.70;18.10;;;;;;;16.63;100.00;101349.58;218140;1287;142706;-88
2023/09/06 06:56:54;;;;;;;35.50;18.60;;;;;;;16.71;100.00;101352.83;218801;1286;139795;-88
2023/09/06 07:01:55;;;;;;;26.90;16.80;;;;;;;16.89;100.00;101352.14;218231;1287;143361;-88
2023/09/06 07:06:55;;;;;;;25.70;15.80;;;;;;;17.04;100.00;101350.30;218837;1288;96345;-88
2023/09/06 07:11:55;;;;;;;23.60;14.10;;;;;;;17.26;100.00;101354.89;218091;1288;141748;-88
2023/09/06 07:16:58;;;;;;;30.60;13.90;;;;;;;17.38;100.00;101351.70;218830;1286;139416;-88
2023/09/06 07:22:00;;;;;;;25.30;14.70;;;;;;;17.55;100.00;101352.64;218200;1285;141397;-87
2023/09/06 07:27:02;;;;;;;24.40;14.30;;;;;;;17.67;100.00;101355.15;218920;1285;139618;-87
2023/09/06 07:32:03;;;;;;;24.40;12.50;;;;;;;17.79;100.00;101357.81;218310;1288;142128;-87
2023/09/06 07:37:03;;;;;;;26.70;13.10;;;;;;;18.09;99.93;101363.34;219036;1287;96076;-87
2023/09/06 07:42:07;;;;;;;23.60;10.60;;;;;;;18.32;98.98;101364.52;218375;1286;140929;-87
2023/09/06 07:47:07;;;;;;;20.20;10.40;;;;;;;18.55;97.64;101364.95;218822;1288;139852;-88
2023/09/06 07:52:08;;;;;;;21.30;9.60;;;;;;;18.73;96.81;101364.58;218367;1286;141347;-88
2023/09/06 07:57:08;;;;;;;27.70;11.10;;;;;;;18.97;95.98;101360.89;218737;1288;139686;-88
2023/09/06 08:02:09;;;;;;;19.20;8.90;;;;;;;19.15;95.07;101366.55;218378;1288;141004;-87
2023/09/06 08:07:10;;;;;;;22.30;9.20;;;;;;;19.40;93.51;101374.08;218854;1288;96644;-88
2023/09/06 08:12:10;;;;;;;16.20;8.50;;;;;;;19.61;93.73;101375.60;218115;1287;140372;-88
2023/09/06 08:17:11;;;;;;;21.10;8.50;;;;;;;19.84;92.55;101376.30;218869;1286;138848;-88
2023/09/06 08:22:11;;;;;;;18.80;8.30;;;;;;;20.10;91.32;101382.23;218204;1288;143903;-88
2023/09/06 08:27:12;;;;;;;20.60;8.70;;;;;;;20.38;91.06;101383.38;218842;1288;139173;-88
2023/09/06 08:32:12;;;;;;;14.50;7.50;;;;;;;20.65;90.41;101386.92;217987;1287;141598;-88
2023/09/06 08:37:13;;;;;;;16.40;7.50;;;;;;;20.96;88.65;101393.34;218567;1288;139467;-88
2023/09/06 08:42:13;;;;;;;74.00;11.20;;;;;;;21.29;88.20;101395.35;218447;1288;140853;-88
2023/09/06 08:47:18;;;;;;;18.20;8.10;;;;;;;21.63;88.78;101395.05;218786;1287;139667;-88
2023/09/06 08:52:19;;;;;;;12.60;6.90;;;;;;;22.01;86.39;101397.75;218234;1286;141437;-87
2023/09/06 08:57:21;;;;;;;20.50;7.30;;;;;;;22.49;85.27;101406.27;218794;1287;139500;-88
2023/09/06 09:02:21;;;;;;;30.50;8.70;;;;;;;23.05;84.46;101404.09;218230;1287;140547;-88
2023/09/06 09:07:22;;;;;;;14.00;6.80;;;;;;;23.95;82.44;101398.89;218770;1287;139093;-88
2023/09/06 09:12:26;;;;;;;15.60;6.60;;;;;;;24.88;81.63;101393.45;218144;1288;142714;-89
2023/09/06 09:17:28;;;;;;;22.10;6.50;;;;;;;26.01;80.05;101394.98;218502;1288;139764;-88
2023/09/06 09:22:37;;;;;;;16.00;6.10;;;;;;;27.18;73.29;101391.01;218256;1287;140660;-88
2023/09/06 09:27:38;;;;;;;12.60;5.60;;;;;;;28.01;68.36;101389.80;218589;1287;139273;-87
2023/09/06 09:32:39;;;;;;;17.40;6.00;;;;;;;28.83;66.19;101394.27;218141;1286;141458;-89
2023/09/06 09:37:41;;;;;;;11.10;5.60;;;;;;;29.63;64.32;101401.16;218871;1288;138781;-89
2023/09/06 09:42:53;;;;;;;9.10;4.80;;;;;;;30.37;59.75;101408.27;218476;1286;140185;-90
2023/09/06 09:47:54;;;;;;;16.20;5.40;;;;;;;30.98;57.79;101411.00;218481;1288;138293;-89
2023/09/06 09:52:56;;;;;;;10.70;4.90;;;;;;;31.71;55.79;101407.95;218356;1286;141209;-89
2023/09/06 09:58:34;;;;;;;;;;;;;;;;;;;;;
2023/09/06 10:03:42;;;;;;;9.20;4.80;;;;;;;32.78;50.36;101398.36;217405;1288;140447;-88
2023/09/06 10:08:46;;;;;;;12.90;5.40;;;;;;;33.11;48.27;101395.70;218565;1288;138170;-89
2023/09/06 10:13:51;;;;;;;14.50;5.50;;;;;;;33.40;47.50;101399.15;218124;1286;138863;-89
2023/09/06 10:18:59;;;;;;;12.10;5.00;;;;;;;33.45;46.37;101395.13;218599;1286;98820;-88
2023/09/06 10:24:00;;;;;;;11.90;5.50;;;;;;;33.96;46.75;101397.14;217711;1287;139766;-87
2023/09/06 10:29:01;;;;;;;12.10;5.30;;;;;;;34.49;45.99;101401.30;218554;1288;138351;-88
2023/09/06 10:34:12;;;;;;;15.30;5.20;;;;;;;34.49;43.00;101403.60;218070;1287;139173;-88
2023/09/06 10:39:14;;;;;;;9.30;5.20;;;;;;;34.50;43.40;101397.15;218159;1287;140240;-86
2023/09/06 10:44:15;;;;;;;13.30;5.60;;;;;;;34.86;42.97;101396.79;219231;1286;137208;-88
2023/09/06 10:49:22;;;;;;;13.80;4.80;;;;;;;35.01;41.56;101398.02;218562;1287;141142;-89
2023/09/06 10:54:43;;;;;;;9.20;4.70;;;;;;;35.03;42.10;101399.58;218764;1286;139054;-89
2023/09/06 10:59:45;;;;;;;9.20;4.70;;;;;;;34.84;39.98;101397.31;218008;1288;304306;-89
2023/09/06 11:04:45;;;;;;;12.40;5.20;;;;;;;35.03;42.92;101391.34;218999;1288;139332;-88
2023/09/06 11:09:50;;;;;;;12.00;4.70;;;;;;;35.66;41.83;101387.63;218217;1287;140497;-88
2023/09/06 11:14:54;;;;;;;10.40;6.00;;;;;;;35.56;39.72;101385.29;218872;1286;138251;-87
2023/09/06 11:19:55;;;;;;;;;;;;;;;35.32;40.18;101379.70;218736;1287;141358;-88
2023/09/06 11:24:55;;;;;;;12.10;5.10;;;;;;;35.31;41.24;101381.73;219015;1288;96473;-88
2023/09/06 11:29:59;;;;;;;11.90;5.30;;;;;;;35.31;41.00;101377.52;218332;1288;140798;-86
2023/09/06 11:35:00;;;;;;;14.20;5.00;;;;;;;35.13;39.14;101378.54;218792;1287;138405;-87
2023/09/06 11:40:01;;;;;;;15.30;5.80;;;;;;;35.02;40.17;101376.33;218195;1288;141733;-88
2023/09/06 11:45:05;;;;;;;9.10;5.60;;;;;;;34.58;39.03;101375.47;218699;1289;138429;-88
2023/09/06 11:50:08;;;;;;;11.10;5.50;;;;;;;34.17;39.07;101372.77;218291;1288;141480;-88
2023/09/06 11:55:09;;;;;;;11.90;5.30;;;;;;;33.95;40.38;101367.35;219111;1287;96872;-87
2023/09/06 12:00:19;;;;;;;12.80;5.90;;;;;;;33.87;40.99;101359.17;218404;1287;140302;-88
2023/09/06 12:05:23;;;;;;;12.00;4.80;;;;;;;34.03;40.67;101352.69;218820;1286;138658;-87
2023/09/06 12:10:27;;;;;;;9.80;5.30;;;;;;;33.60;39.36;101347.73;218389;1287;141640;-88
2023/09/06 12:15:28;;;;;;;11.70;4.90;;;;;;;33.06;39.47;101346.54;218807;1288;139341;-88
2023/09/06 12:20:28;;;;;;;9.70;4.80;;;;;;;32.59;39.64;101340.66;218379;1285;140790;-88
2023/09/06 12:25:29;;;;;;;8.40;5.20;;;;;;;32.62;42.29;101340.32;219194;1287;96224;-88
2023/09/06 12:30:30;;;;;;;12.30;4.90;;;;;;;32.88;41.78;101340.92;218318;1288;141225;-88
2023/09/06 12:35:37;;;;;;;8.00;4.60;;;;;;;32.85;42.44;101335.38;219019;1286;139542;-89
2023/09/06 12:40:46;;;;;;;9.50;4.50;;;;;;;32.90;43.00;101333.95;218350;1288;139492;-89
2023/09/06 12:45:53;;;;;;;10.10;4.40;;;;;;;32.82;41.22;101328.14;218836;1287;138350;-88
2023/09/06 12:50:54;;;;;;;9.10;4.60;;;;;;;32.82;41.18;101325.19;218391;1286;140833;-88
2023/09/06 12:56:02;;;;;;;10.70;4.60;;;;;;;32.71;40.15;101323.84;219157;1286;138565;-87
2023/09/06 13:01:06;;;;;;;11.90;4.40;;;;;;;32.65;39.96;101317.38;218319;1286;140628;-88
2023/09/06 13:11:06;;;;;;;10.30;4.40;;;;;;;32.08;39.86;101305.92;217900;1284;141354;-88
2023/09/06 13:16:07;;;;;;;11.00;4.40;;;;;;;31.59;40.50;101305.48;218309;1288;138371;-88
2023/09/06 13:21:08;;;;;;;9.90;4.40;;;;;;;31.45;40.92;101299.19;217808;1291;140301;-88
2023/09/06 13:26:09;;;;;;;10.00;4.40;;;;;;;31.51;41.66;101295.27;218213;1288;138743;-89
2023/09/06 13:31:10;;;;;;;7.60;4.00;;;;;;;31.38;42.04;101292.57;217981;1288;141609;-88
2023/09/06 13:36:11;;;;;;;10.30;4.30;;;;;;;30.92;42.55;101285.91;218371;1288;138680;-88
2023/09/06 13:41:11;;;;;;;9.00;4.10;;;;;;;30.82;42.51;101286.45;217878;1289;139981;-88
2023/09/06 13:46:12;;;;;;;15.50;5.00;;;;;;;30.74;43.47;101284.08;218149;1288;138178;-86
2023/09/06 13:51:12;;;;;;;10.60;4.20;;;;;;;30.47;41.87;101287.83;217956;1289;140547;-87
2023/09/06 13:56:13;;;;;;;9.40;3.90;;;;;;;30.20;42.64;101287.19;218118;1288;138430;-88
2023/09/06 14:01:15;;;;;;;10.60;4.60;;;;;;;30.20;45.48;101284.96;217973;1288;141188;-87
2023/09/06 14:06:15;;;;;;;13.10;3.60;;;;;;;30.12;43.91;101282.51;218238;1289;138331;-87
2023/09/06 14:11:18;;;;;;;7.90;4.40;;;;;;;29.90;43.19;101282.54;217901;1288;140696;-87
2023/09/06 14:16:18;;;;;;;7.50;4.30;;;;;;;29.81;45.15;101277.60;218248;1288;138767;-87
2023/09/06 14:21:20;;;;;;;7.90;4.10;;;;;;;29.74;44.04;101281.33;217729;1288;140588;-88
2023/09/06 14:26:21;;;;;;;11.10;4.30;;;;;;;29.53;44.22;101283.24;218397;1288;139195;-86
2023/09/06 14:31:23;;;;;;;10.30;4.80;;;;;;;29.28;43.94;101276.08;217868;1288;140092;-85
2023/09/06 14:36:24;;;;;;;9.90;3.60;;;;;;;29.11;46.55;101278.17;218336;1288;138336;-86
2023/09/06 14:41:25;;;;;;;8.90;3.80;;;;;;;29.04;45.64;101269.91;217906;1288;140457;-87
2023/09/06 14:46:25;;;;;;;9.90;3.90;;;;;;;28.83;46.61;101266.23;218458;1288;138345;-87
2023/09/06 14:51:26;;;;;;;9.20;3.90;;;;;;;28.60;46.97;101265.25;217886;1289;140086;-87
2023/09/06 14:56:26;;;;;;;8.90;4.00;;;;;;;28.35;47.79;101265.11;218417;1288;230100;-88
2023/09/06 15:01:27;;;;;;;7.50;3.60;;;;;;;28.12;48.59;101263.05;217980;1288;139800;-86
2023/09/06 15:06:27;;;;;;;8.10;4.20;;;;;;;27.96;48.43;101267.26;218278;1288;138351;-87
2023/09/06 15:11:28;;;;;;;10.20;4.30;;;;;;;27.77;48.46;101273.04;217840;1290;142264;-87
2023/09/06 15:16:28;;;;;;;10.40;4.10;;;;;;;27.61;48.68;101270.31;218318;1290;138519;-87
2023/09/06 15:21:29;;;;;;;8.00;3.70;;;;;;;27.45;48.36;101271.20;217864;1288;141381;-87
2023/09/06 15:26:29;;;;;;;7.00;3.70;;;;;;;27.28;49.52;101266.31;218387;1289;138213;-87
2023/09/06 15:31:30;;;;;;;9.60;3.50;;;;;;;27.05;48.58;101266.98;217850;1288;141806;-86
2023/09/06 15:36:33;;;;;;;8.40;4.20;;;;;;;26.89;49.59;101266.23;218415;1288;138159;-88
2023/09/06 15:41:34;;;;;;;7.60;4.10;;;;;;;26.67;49.25;101267.35;217840;1288;140715;-86
2023/09/06 15:46:35;;;;;;;6.90;3.10;;;;;;;26.51;50.02;101276.80;218335;1288;138168;-87
2023/09/06 15:51:35;;;;;;;7.70;3.60;;;;;;;26.39;50.09;101276.45;217936;1288;142149;-87
2023/09/06 15:56:36;;;;;;;8.30;3.90;;;;;;;26.28;51.68;101277.32;218159;1288;138148;-87
2023/09/06 16:01:36;;;;;;;9.20;3.50;;;;;;;26.11;52.58;101272.66;217993;1289;141605;-86
2023/09/06 16:06:38;;;;;;;9.40;3.50;;;;;;;25.95;53.23;101271.60;218358;1291;138048;-86
2023/09/06 16:11:38;;;;;;;8.40;3.50;;;;;;;25.81;52.83;101272.83;217892;1288;140020;-87
2023/09/06 16:16:39;;;;;;;10.50;3.30;;;;;;;25.68;53.00;101270.03;218637;1288;138350;-87
2023/09/06 16:21:39;;;;;;;6.70;3.20;;;;;;;25.54;53.56;101275.79;217915;1288;142970;-87
2023/09/06 16:26:40;;;;;;;6.60;2.80;;;;;;;25.39;54.21;101278.37;218275;1288;138366;-87
2023/09/06 16:31:41;;;;;;;7.00;3.10;;;;;;;25.28;54.92;101280.37;217901;1288;141649;-87
2023/09/06 16:36:41;;;;;;;6.40;3.10;;;;;;;25.16;55.16;101276.30;218383;1289;137810;-87
2023/09/06 16:41:42;;;;;;;7.00;3.20;;;;;;;25.01;56.25;101278.16;217868;1288;140441;-87
2023/09/06 16:46:42;;;;;;;7.20;3.20;;;;;;;24.86;57.09;101283.36;218421;1288;140228;-87
2023/09/06 16:51:43;;;;;;;8.10;3.60;;;;;;;24.73;58.29;101286.14;217861;1288;140805;-87
2023/09/06 16:56:44;;;;;;;7.90;3.10;;;;;;;24.60;59.47;101282.29;218004;1288;138255;-87
2023/09/06 17:01:44;;;;;;;6.80;3.20;;;;;;;24.49;60.58;101286.58;217621;1288;140063;-86
2023/09/06 17:06:46;;;;;;;6.20;3.40;;;;;;;24.34;62.05;101289.42;218479;1288;96208;-86
2023/09/06 17:11:48;;;;;;;6.70;3.60;;;;;;;24.17;63.14;101293.17;217544;1289;142450;-87
2023/09/06 17:16:49;;;;;;;10.60;3.20;;;;;;;23.97;64.47;101294.52;218195;1288;138440;-88
2023/09/06 17:21:49;;;;;;;8.10;4.00;;;;;;;23.75;65.69;101296.48;217617;1288;141112;-87
2023/09/06 17:26:50;;;;;;;9.30;4.20;;;;;;;23.52;66.78;101298.52;218150;1288;138619;-86
2023/09/06 17:31:51;;;;;;;10.50;4.20;;;;;;;23.27;68.04;101302.91;217959;1289;141636;-87
2023/09/06 17:36:51;;;;;;;8.50;4.10;;;;;;;23.03;68.82;101302.80;218325;1290;97303;-87
2023/09/06 17:41:52;;;;;;;10.10;4.50;;;;;;;22.81;69.79;101308.61;217753;1291;140223;-87
2023/09/06 17:46:52;;;;;;;10.10;4.10;;;;;;;22.58;70.64;101309.48;218273;1292;138270;-89
2023/09/06 17:51:53;;;;;;;8.00;4.00;;;;;;;22.35;71.28;101309.12;217470;1288;141511;-89
2023/09/06 17:56:54;;;;;;;8.90;4.60;;;;;;;22.13;72.23;101312.35;218294;1293;138163;-86
2023/09/06 18:01:58;;;;;;;10.50;4.50;;;;;;;21.97;72.71;101312.86;217879;1288;140645;-88
2023/09/06 18:06:59;;;;;;;7.60;4.00;;;;;;;21.76;73.35;101312.83;218521;1288;95982;-88
2023/09/06 18:12:01;;;;;;;12.70;5.00;;;;;;;21.56;74.19;101316.90;217785;1289;141683;-88
2023/09/06 18:17:01;;;;;;;10.90;4.30;;;;;;;21.37;75.26;101321.27;218372;1288;139608;-87
2023/09/06 18:22:04;;;;;;;12.20;4.70;;;;;;;21.19;76.05;101325.60;217770;1288;143489;-88
2023/09/06 18:27:06;;;;;;;11.90;5.40;;;;;;;20.99;76.90;101328.17;218196;1289;140112;-89
2023/09/06 18:32:06;;;;;;;13.50;5.00;;;;;;;20.79;77.59;101334.34;217680;1288;141734;-88
2023/09/06 18:37:08;;;;;;;15.40;5.90;;;;;;;20.62;78.55;101338.13;218227;1288;96808;-88
2023/09/06 18:42:08;;;;;;;10.50;5.40;;;;;;;20.46;79.19;101336.86;217703;1292;141165;-88
2023/09/06 18:47:09;;;;;;;12.20;6.80;;;;;;;20.34;79.50;101335.66;218140;1288;139419;-89
2023/09/06 18:52:09;;;;;;;12.10;7.20;;;;;;;20.19;80.28;101335.80;217565;1289;141788;-88
2023/09/06 18:57:12;;;;;;;16.70;9.40;;;;;;;20.07;80.94;101344.17;218131;1291;139242;-88
2023/09/06 19:02:13;;;;;;;14.60;8.10;;;;;;;19.89;81.51;101346.30;217727;1288;142514;-88
2023/09/06 19:07:14;;;;;;;15.50;8.00;;;;;;;19.77;82.08;101346.45;218111;1288;97290;-89
2023/09/06 19:12:17;;;;;;;15.50;7.60;;;;;;;19.67;82.59;101344.11;217705;1289;143009;-89
2023/09/06 19:17:18;;;;;;;13.50;6.60;;;;;;;19.50;83.36;101346.92;218191;1288;139536;-88
2023/09/06 19:22:18;;;;;;;10.30;5.80;;;;;;;19.38;83.78;101350.95;217977;1294;140908;-88
2023/09/06 19:27:19;;;;;;;10.10;6.10;;;;;;;19.30;84.16;101350.16;218603;1292;139544;-88
2023/09/06 19:32:21;;;;;;;9.70;5.70;;;;;;;19.22;84.59;101346.88;217689;1292;141841;-89
2023/09/06 19:37:25;;;;;;;8.90;5.00;;;;;;;19.12;85.18;101341.69;218125;1289;96564;-90
2023/09/06 19:42:26;;;;;;;12.10;5.70;;;;;;;19.04;85.89;101340.25;217687;1291;140473;-88
2023/09/06 19:47:27;;;;;;;10.80;5.30;;;;;;;18.93;86.50;101347.13;218201;1292;138908;-88
2023/09/06 19:52:28;;;;;;;9.20;4.70;;;;;;;18.83;86.89;101346.02;217844;1293;141966;-88
2023/09/06 19:57:29;;;;;;;10.50;5.70;;;;;;;18.78;86.88;101349.39;218455;1288;139800;-88
2023/09/06 20:02:30;;;;;;;11.30;5.70;;;;;;;18.72;86.63;101351.60;217793;1289;144751;-88
2023/09/06 20:07:30;;;;;;;9.50;5.10;;;;;;;18.63;87.17;101355.16;218265;1288;96366;-88
2023/09/06 20:12:31;;;;;;;9.80;5.60;;;;;;;18.55;87.71;101359.29;217594;1289;140369;-90
2023/09/06 20:17:31;;;;;;;9.90;5.70;;;;;;;18.45;88.02;101357.28;218196;1289;138678;-89
2023/09/06 20:22:32;;;;;;;9.40;5.40;;;;;;;18.38;88.34;101356.14;217501;1292;141828;-90
2023/09/06 20:27:32;;;;;;;9.40;4.70;;;;;;;18.33;88.68;101359.40;218243;1289;139472;-89
2023/09/06 20:32:33;;;;;;;7.80;4.10;;;;;;;18.28;88.68;101359.97;217600;1293;142424;-89
2023/09/06 20:37:34;;;;;;;9.20;4.90;;;;;;;18.22;88.57;101363.43;218147;1289;96419;-89
2023/09/06 20:42:35;;;;;;;10.00;4.80;;;;;;;18.18;89.04;101370.46;217692;1289;139669;-89
2023/09/06 20:47:35;;;;;;;7.80;4.20;;;;;;;18.10;89.43;101370.50;218328;1289;140551;-88
2023/09/06 20:52:35;;;;;;;11.50;5.50;;;;;;;18.00;90.16;101373.23;217630;1290;142462;-89
2023/09/06 20:57:36;;;;;;;7.10;4.10;;;;;;;17.91;90.40;101372.25;218029;1289;140638;-89
2023/09/06 21:02:37;;;;;;;10.90;4.60;;;;;;;17.87;90.58;101376.48;217443;1291;140104;-89
2023/09/06 21:07:38;;;;;;;10.50;5.30;;;;;;;17.79;91.45;101377.08;218228;1290;96355;-88
2023/09/06 21:12:39;;;;;;;8.80;4.90;;;;;;;17.70;91.53;101380.27;217508;1288;142543;-88
2023/09/06 21:17:39;;;;;;;8.90;4.50;;;;;;;17.61;92.37;101383.24;218402;1294;138933;-88
2023/09/06 21:22:39;;;;;;;9.20;5.10;;;;;;;17.53;92.37;101381.44;217464;1290;140710;-88
2023/09/06 21:27:41;;;;;;;9.70;4.90;;;;;;;17.44;93.30;101384.71;218113;1288;140319;-89
2023/09/06 21:32:42;;;;;;;10.90;4.90;;;;;;;17.35;93.64;101386.83;217742;1289;141137;-88
2023/09/06 21:37:42;;;;;;;8.70;4.40;;;;;;;17.30;93.85;101388.35;218450;1289;96577;-88
2023/09/06 21:42:43;;;;;;;8.20;4.40;;;;;;;17.22;93.75;101389.55;217918;1288;139961;-88
2023/09/06 21:47:44;;;;;;;11.30;4.70;;;;;;;17.15;94.39;101395.14;218268;1288;139306;-89
2023/09/06 21:52:44;;;;;;;9.30;5.20;;;;;;;17.09;94.53;101396.55;217845;1288;140948;-88
2023/09/06 21:57:44;;;;;;;10.60;5.00;;;;;;;17.04;94.53;101398.23;218398;1288;139619;-87
2023/09/06 22:02:45;;;;;;;8.70;4.60;;;;;;;16.99;94.91;101395.98;217782;1289;141437;-88
2023/09/06 22:07:45;;;;;;;9.90;5.30;;;;;;;16.94;95.10;101400.92;218340;1289;139451;-89
2023/09/06 22:12:47;;;;;;;8.40;4.60;;;;;;;16.90;95.44;101404.89;218010;1288;141324;-88
2023/09/06 22:17:47;;;;;;;9.10;5.20;;;;;;;16.86;95.68;101410.04;218291;1288;139244;-87
2023/09/06 22:22:48;;;;;;;10.70;5.50;;;;;;;16.82;95.86;101410.52;217624;1288;139538;-87
2023/09/06 22:27:50;;;;;;;8.60;5.20;;;;;;;16.75;96.32;101410.84;218211;1288;139465;-88
2023/09/06 22:32:50;;;;;;;9.90;5.60;;;;;;;16.68;96.38;101408.44;217697;1288;141602;-87
2023/09/06 22:37:52;;;;;;;10.70;5.60;;;;;;;16.64;96.77;101414.30;218525;1288;139186;-88
2023/09/06 22:42:52;;;;;;;10.10;5.40;;;;;;;16.57;97.15;101415.00;217790;1288;141492;-89